createdAt,value
2023-04-09T00:02:03.435Z,100.00
2023-04-09T00:04:31.512Z,100.00
2023-04-09T00:06:59.441Z,100.00
2023-04-09T00:09:27.546Z,100.00
2023-04-09T00:11:57.169Z,100.00
2023-04-09T00:14:25.547Z,100.00
2023-04-09T00:16:53.653Z,100.00
2023-04-09T00:19:21.833Z,100.00
2023-04-09T00:21:49.792Z,100.00
2023-04-09T00:24:17.697Z,100.00
2023-04-09T00:26:45.613Z,100.00
2023-04-09T00:29:15.025Z,100.00
2023-04-09T00:31:43.143Z,100.00
2023-04-09T00:34:11.628Z,100.00
2023-04-09T00:36:39.532Z,100.00
2023-04-09T00:39:07.557Z,100.00
2023-04-09T00:41:36.057Z,100.00
2023-04-09T00:44:04.025Z,100.00
2023-04-09T00:46:33.846Z,100.00
2023-04-09T00:49:01.887Z,100.00
2023-04-09T00:51:29.833Z,100.00
2023-04-09T00:53:57.891Z,100.00
2023-04-09T00:56:25.895Z,100.00
2023-04-09T00:58:54.423Z,100.00
2023-04-09T01:01:22.652Z,100.00
2023-04-09T01:03:52.291Z,100.00
2023-04-09T01:06:29.205Z,100.00
2023-04-09T01:09:04.246Z,100.00
2023-04-09T01:11:39.433Z,100.00
2023-04-09T01:14:13.987Z,100.00
2023-04-09T01:16:45.774Z,100.00
2023-04-09T01:19:33.666Z,100.00
2023-04-09T01:22:03.698Z,100.00
2023-04-09T01:24:42.760Z,100.00
2023-04-09T01:27:11.373Z,100.00
2023-04-09T01:29:47.632Z,100.00
2023-04-09T01:32:19.848Z,100.00
2023-04-09T01:34:49.445Z,100.00
2023-04-09T01:37:18.306Z,100.00
2023-04-09T01:39:46.669Z,100.00
2023-04-09T01:42:17.806Z,100.00
2023-04-09T01:44:48.229Z,100.00
2023-04-09T01:47:16.860Z,100.00
2023-04-09T01:49:44.929Z,100.00
2023-04-09T01:52:13.487Z,100.00
2023-04-09T01:54:41.485Z,100.00
2023-04-09T01:57:09.455Z,100.00
2023-04-09T01:59:37.407Z,100.00
2023-04-09T02:02:12.039Z,100.00
2023-04-09T02:04:45.057Z,100.00
2023-04-09T02:07:19.730Z,100.00
2023-04-09T02:09:49.559Z,100.00
2023-04-09T02:12:19.785Z,100.00
2023-04-09T02:14:50.505Z,100.00
2023-04-09T02:17:20.320Z,100.00
2023-04-09T02:19:49.262Z,100.00
2023-04-09T02:22:18.313Z,100.00
2023-04-09T02:24:47.824Z,100.00
2023-04-09T02:27:16.319Z,100.00
2023-04-09T02:29:44.413Z,100.00
2023-04-09T02:32:12.360Z,100.00
2023-04-09T02:34:41.665Z,100.00
2023-04-09T02:37:09.637Z,100.00
2023-04-09T02:39:37.512Z,100.00
2023-04-09T02:42:07.896Z,100.00
2023-04-09T02:44:35.883Z,100.00
2023-04-09T02:47:03.917Z,100.00
2023-04-09T02:49:31.902Z,100.00
2023-04-09T02:52:01.244Z,100.00
2023-04-09T02:54:29.225Z,100.00
2023-04-09T02:56:57.501Z,100.00
2023-04-09T02:59:25.514Z,100.00
2023-04-09T03:01:53.705Z,100.00
2023-04-09T03:04:21.743Z,100.00
2023-04-09T03:06:51.705Z,100.00
2023-04-09T03:09:20.982Z,100.00
2023-04-09T03:11:48.877Z,100.00
2023-04-09T03:14:16.893Z,100.00
2023-04-09T03:16:44.912Z,100.00
2023-04-09T03:19:12.856Z,100.00
2023-04-09T03:21:40.974Z,100.00
2023-04-09T03:24:08.921Z,100.00
2023-04-09T03:26:38.565Z,100.00
2023-04-09T03:29:07.336Z,100.00
2023-04-09T03:31:35.471Z,100.00
2023-04-09T03:34:03.495Z,100.00
2023-04-09T03:36:31.719Z,100.00
2023-04-09T03:39:00.464Z,100.00
2023-04-09T03:41:28.536Z,100.00
2023-04-09T03:43:57.930Z,100.00
2023-04-09T03:46:26.363Z,100.00
2023-04-09T03:48:54.573Z,100.00
2023-04-09T03:51:22.685Z,100.00
2023-04-09T03:53:50.890Z,100.00
2023-04-09T03:56:18.827Z,100.00
2023-04-09T03:58:48.508Z,100.00
2023-04-09T04:01:17.872Z,100.00
2023-04-09T04:03:46.067Z,100.00
2023-04-09T04:06:14.109Z,100.00
2023-04-09T04:08:42.079Z,100.00
2023-04-09T04:11:10.209Z,100.00
2023-04-09T04:13:38.111Z,100.00
2023-04-09T04:16:09.298Z,100.00
2023-04-09T04:18:38.983Z,100.00
2023-04-09T04:21:07.091Z,100.00
2023-04-09T04:23:35.917Z,100.00
2023-04-09T04:26:10.071Z,100.00
2023-04-09T04:28:38.386Z,100.00
2023-04-09T04:31:09.169Z,100.00
2023-04-09T04:33:39.392Z,100.00
2023-04-09T04:36:08.255Z,100.00
2023-04-09T04:38:37.103Z,100.00
2023-04-09T04:41:05.476Z,100.00
2023-04-09T04:43:33.473Z,100.00
2023-04-09T04:46:01.477Z,100.00
2023-04-09T04:48:31.051Z,100.00
2023-04-09T04:51:02.094Z,100.00
2023-04-09T04:53:30.197Z,100.00
2023-04-09T04:55:58.166Z,100.00
2023-04-09T04:58:26.708Z,100.00
2023-04-09T05:00:54.927Z,100.00
2023-04-09T05:03:23.611Z,100.00
2023-04-09T05:05:53.284Z,100.00
2023-04-09T05:08:22.735Z,100.00
2023-04-09T05:10:51.373Z,100.00
2023-04-09T05:13:19.689Z,100.00
2023-04-09T05:15:47.798Z,100.00
2023-04-09T05:18:15.780Z,100.00
2023-04-09T05:20:43.849Z,100.00
2023-04-09T05:23:12.607Z,100.00
2023-04-09T05:25:41.977Z,100.00
2023-04-09T05:28:11.308Z,100.00
2023-04-09T05:30:39.437Z,100.00
2023-04-09T05:33:07.378Z,100.00
2023-04-09T05:35:39.376Z,100.00
2023-04-09T05:38:07.549Z,100.00
2023-04-09T05:40:36.499Z,100.00
2023-04-09T05:43:07.257Z,100.00
2023-04-09T05:45:35.272Z,100.00
2023-04-09T05:48:03.697Z,100.00
2023-04-09T05:50:37.988Z,100.00
2023-04-09T05:53:13.191Z,100.00
2023-04-09T05:55:41.288Z,100.00
2023-04-09T05:58:10.930Z,100.00
2023-04-09T06:00:38.965Z,100.00
2023-04-09T06:03:07.192Z,100.00
2023-04-09T06:05:35.232Z,100.00
2023-04-09T06:08:03.634Z,100.00
2023-04-09T06:10:34.586Z,100.00
2023-04-09T06:13:02.591Z,100.00
2023-04-09T06:15:32.050Z,100.00
2023-04-09T06:18:00.140Z,100.00
2023-04-09T06:20:28.389Z,100.00
2023-04-09T06:22:56.415Z,100.00
2023-04-09T06:25:24.603Z,100.00
2023-04-09T06:27:52.598Z,100.00
2023-04-09T06:30:20.744Z,100.00
2023-04-09T06:32:54.487Z,100.00
2023-04-09T06:35:23.426Z,100.00
2023-04-09T06:37:51.562Z,100.00
2023-04-09T06:40:22.938Z,100.00
2023-04-09T06:42:51.569Z,100.00
2023-04-09T06:45:19.696Z,100.00
2023-04-09T06:47:49.352Z,100.00
2023-04-09T06:50:17.598Z,100.00
2023-04-09T06:52:45.587Z,100.00
2023-04-09T06:55:14.075Z,100.00
2023-04-09T06:57:42.184Z,100.00
2023-04-09T07:00:11.508Z,100.00
2023-04-09T07:02:39.942Z,100.00
2023-04-09T07:05:10.417Z,100.00
2023-04-09T07:07:38.899Z,100.00
2023-04-09T07:10:07.995Z,100.00
2023-04-09T07:12:36.316Z,100.00
2023-04-09T07:15:08.119Z,100.00
2023-04-09T07:17:37.059Z,100.00
2023-04-09T07:20:05.605Z,100.00
2023-04-09T07:22:35.175Z,100.00
2023-04-09T07:25:03.419Z,100.00
2023-04-09T07:27:31.905Z,100.00
2023-04-09T07:30:00.890Z,100.00
2023-04-09T07:32:29.232Z,100.00
2023-04-09T07:34:59.414Z,100.00
2023-04-09T07:37:28.335Z,100.00
2023-04-09T07:39:57.960Z,100.00
2023-04-09T07:42:25.965Z,100.00
2023-04-09T07:44:54.001Z,100.00
2023-04-09T07:47:23.966Z,100.00
2023-04-09T07:49:52.108Z,100.00
2023-04-09T07:52:20.909Z,100.00
2023-04-09T07:54:49.019Z,100.00
2023-04-09T07:57:18.807Z,100.00
2023-04-09T07:59:49.135Z,100.00
2023-04-09T08:02:17.942Z,100.00
2023-04-09T08:04:46.148Z,100.00
2023-04-09T08:07:14.319Z,100.00
2023-04-09T08:09:42.341Z,100.00
2023-04-09T08:12:11.148Z,100.00
2023-04-09T08:14:41.400Z,100.00
2023-04-09T08:17:09.511Z,100.00
2023-04-09T08:22:22.802Z,100.00
2023-04-09T08:24:53.388Z,100.00
2023-04-09T08:27:22.133Z,100.00
2023-04-09T08:29:51.660Z,100.00
2023-04-09T08:32:19.946Z,100.00
2023-04-09T08:34:48.221Z,100.00
2023-04-09T08:37:16.822Z,100.00
2023-04-09T08:39:44.859Z,100.00
2023-04-09T08:42:19.064Z,100.00
2023-04-09T08:44:47.716Z,100.00
2023-04-09T08:47:17.584Z,100.00
2023-04-09T08:49:45.770Z,100.00
2023-04-09T08:52:16.430Z,100.00
2023-04-09T08:54:45.717Z,100.00
2023-04-09T08:57:13.808Z,98.46
2023-04-09T08:59:41.923Z,98.51
2023-04-09T09:02:12.123Z,91.05
2023-04-09T09:04:48.554Z,91.06
2023-04-09T09:07:17.792Z,90.36
2023-04-09T09:09:53.906Z,91.64
2023-04-09T09:12:40.557Z,95.33
2023-04-09T09:15:27.435Z,93.04
2023-04-09T09:17:57.059Z,92.66
2023-04-09T09:20:28.019Z,91.67
2023-04-09T09:22:57.751Z,94.37
2023-04-09T09:25:26.446Z,94.62
2023-04-09T09:27:55.438Z,95.05
2023-04-09T09:30:24.321Z,96.14
2023-04-09T09:32:54.916Z,92.46
2023-04-09T09:35:23.540Z,83.97
2023-04-09T09:38:05.080Z,87.02
2023-04-09T09:40:33.313Z,85.21
2023-04-09T09:43:01.380Z,83.68
2023-04-09T09:45:31.517Z,82.64
2023-04-09T09:47:59.725Z,82.90
2023-04-09T09:50:31.785Z,81.40
2023-04-09T09:53:06.281Z,75.23
2023-04-09T09:55:35.916Z,68.97
2023-04-09T09:58:12.380Z,68.16
2023-04-09T10:00:41.590Z,67.32
2023-04-09T10:03:15.588Z,65.83
2023-04-09T10:05:43.940Z,67.48
2023-04-09T10:08:13.921Z,67.11
2023-04-09T10:10:43.654Z,71.45
2023-04-09T10:13:17.265Z,70.91
2023-04-09T10:15:46.330Z,67.13
2023-04-09T10:18:15.089Z,67.98
2023-04-09T10:20:48.989Z,64.96
2023-04-09T10:23:32.517Z,64.10
2023-04-09T10:26:00.989Z,64.07
2023-04-09T10:28:29.045Z,61.90
2023-04-09T10:30:57.598Z,62.11
2023-04-09T10:33:28.228Z,64.74
2023-04-09T10:35:58.569Z,64.87
2023-04-09T10:38:38.799Z,65.50
2023-04-09T10:41:15.106Z,65.15
2023-04-09T10:43:43.823Z,65.88
2023-04-09T10:46:28.915Z,66.41
2023-04-09T10:49:13.763Z,66.47
2023-04-09T10:51:42.427Z,66.32
2023-04-09T10:54:46.225Z,66.35
2023-04-09T10:57:19.536Z,65.39
2023-04-09T10:59:49.743Z,63.09
2023-04-09T11:02:55.157Z,62.78
2023-04-09T11:05:32.092Z,61.56
2023-04-09T11:08:06.012Z,60.17
2023-04-09T11:10:35.773Z,62.03
2023-04-09T11:13:04.097Z,62.18
2023-04-09T11:15:33.430Z,60.74
2023-04-09T11:18:02.262Z,62.33
2023-04-09T11:20:31.172Z,64.45
2023-04-09T11:23:00.844Z,63.92
2023-04-09T11:25:31.551Z,62.20
2023-04-09T11:28:03.466Z,63.64
2023-04-09T11:30:32.007Z,63.60
2023-04-09T11:33:00.377Z,64.42
2023-04-09T11:35:28.467Z,65.26
2023-04-09T11:37:56.498Z,64.79
2023-04-09T11:40:29.332Z,64.36
2023-04-09T11:42:57.774Z,63.69
2023-04-09T11:45:29.261Z,64.05
2023-04-09T11:47:57.514Z,62.94
2023-04-09T11:50:28.126Z,63.54
2023-04-09T11:52:56.300Z,62.99
2023-04-09T11:55:25.832Z,56.82
2023-04-09T11:57:58.198Z,54.63
2023-04-09T12:00:28.316Z,54.85
2023-04-09T12:03:04.237Z,53.49
2023-04-09T12:05:34.509Z,54.18
2023-04-09T12:08:05.185Z,54.02
2023-04-09T12:10:35.141Z,54.98
2023-04-09T12:13:04.484Z,53.29
2023-04-09T12:15:36.098Z,53.71
2023-04-09T12:18:04.701Z,53.88
2023-04-09T12:20:37.839Z,53.47
2023-04-09T12:23:07.786Z,52.91
2023-04-09T12:25:37.380Z,52.99
2023-04-09T12:28:05.878Z,52.70
2023-04-09T12:30:38.648Z,52.32
2023-04-09T12:33:09.556Z,53.81
2023-04-09T12:35:39.518Z,53.98
2023-04-09T12:38:07.803Z,53.24
2023-04-09T12:40:36.938Z,52.55
2023-04-09T12:43:05.555Z,51.27
2023-04-09T12:45:35.916Z,52.61
2023-04-09T12:48:03.876Z,52.68
2023-04-09T12:50:32.121Z,53.48
2023-04-09T12:53:00.423Z,55.14
2023-04-09T12:55:28.654Z,54.94
2023-04-09T12:57:56.644Z,56.38
2023-04-09T13:00:25.061Z,55.92
2023-04-09T13:03:00.000Z,56.31
2023-04-09T13:05:33.758Z,55.33
2023-04-09T13:08:03.589Z,55.34
2023-04-09T13:10:37.523Z,54.33
2023-04-09T13:13:12.246Z,55.19
2023-04-09T13:15:44.057Z,55.06
2023-04-09T13:18:18.325Z,56.03
2023-04-09T13:20:47.491Z,57.09
2023-04-09T13:23:16.569Z,58.20
2023-04-09T13:25:47.431Z,60.26
2023-04-09T13:28:16.141Z,61.35
2023-04-09T13:30:46.678Z,62.40
2023-04-09T13:33:16.507Z,62.95
2023-04-09T13:35:44.667Z,63.23
2023-04-09T13:38:12.557Z,64.28
2023-04-09T13:40:40.779Z,64.21
2023-04-09T13:43:10.096Z,64.20
2023-04-09T13:45:38.035Z,64.44
2023-04-09T13:48:07.864Z,64.64
2023-04-09T13:50:37.603Z,63.95
2023-04-09T13:53:05.840Z,63.46
2023-04-09T13:55:33.878Z,62.78
2023-04-09T13:58:01.819Z,63.09
2023-04-09T14:00:29.905Z,62.29
2023-04-09T14:02:58.147Z,62.84
2023-04-09T14:05:26.294Z,64.14
2023-04-09T14:07:55.745Z,65.85
2023-04-09T14:10:23.964Z,66.63
2023-04-09T14:12:53.300Z,67.08
2023-04-09T14:15:22.305Z,68.29
2023-04-09T14:17:50.837Z,68.50
2023-04-09T14:20:20.104Z,68.86
2023-04-09T14:22:49.596Z,69.91
2023-04-09T14:25:19.135Z,70.29
2023-04-09T14:27:47.155Z,69.90
2023-04-09T14:30:15.228Z,70.84
2023-04-09T14:32:43.336Z,70.86
2023-04-09T14:35:11.448Z,71.58
2023-04-09T14:37:42.300Z,69.59
2023-04-09T14:40:10.710Z,65.37
2023-04-09T14:42:40.570Z,64.44
2023-04-09T14:45:09.410Z,63.53
2023-04-09T14:47:37.612Z,62.32
2023-04-09T14:50:05.976Z,63.21
2023-04-09T14:52:34.347Z,62.07
2023-04-09T14:55:02.367Z,62.51
2023-04-09T14:57:31.427Z,63.05
2023-04-09T15:00:01.061Z,64.21
2023-04-09T15:02:29.176Z,65.08
2023-04-09T15:04:57.823Z,64.60
2023-04-09T15:07:26.720Z,64.52
2023-04-09T15:09:54.741Z,63.88
2023-04-09T15:12:23.824Z,64.15
2023-04-09T15:14:51.814Z,63.91
2023-04-09T15:17:21.500Z,64.62
2023-04-09T15:19:49.727Z,64.07
2023-04-09T15:22:17.916Z,63.59
2023-04-09T15:24:46.316Z,63.64
2023-04-09T15:27:14.444Z,64.92
2023-04-09T15:29:43.237Z,65.26
2023-04-09T15:32:11.854Z,69.75
2023-04-09T15:34:42.193Z,73.15
2023-04-09T15:37:13.567Z,77.27
2023-04-09T15:39:42.786Z,78.64
2023-04-09T15:42:13.469Z,81.13
2023-04-09T15:44:43.954Z,83.71
2023-04-09T15:47:11.955Z,85.99
2023-04-09T15:49:41.543Z,88.81
2023-04-09T15:52:09.578Z,91.77
2023-04-09T15:54:37.853Z,95.02
2023-04-09T15:57:05.887Z,98.77
2023-04-09T15:59:34.243Z,100.00
2023-04-09T16:02:03.206Z,100.00
2023-04-09T16:04:31.396Z,100.00
2023-04-09T16:07:01.749Z,100.00
2023-04-09T16:09:29.732Z,100.00
2023-04-09T16:11:57.916Z,100.00
2023-04-09T16:14:25.926Z,100.00
2023-04-09T16:16:56.290Z,100.00
2023-04-09T16:19:25.157Z,100.00
2023-04-09T16:21:53.369Z,100.00
2023-04-09T16:24:22.792Z,100.00
2023-04-09T16:26:50.816Z,100.00
2023-04-09T16:29:19.001Z,100.00
2023-04-09T16:31:47.000Z,100.00
2023-04-09T16:34:14.940Z,100.00
2023-04-09T16:36:43.546Z,100.00
2023-04-09T16:39:12.042Z,100.00
2023-04-09T16:41:41.659Z,100.00
2023-04-09T16:44:09.691Z,100.00
2023-04-09T16:46:39.144Z,100.00
2023-04-09T16:49:07.152Z,100.00
2023-04-09T16:51:35.329Z,100.00
2023-04-09T16:54:03.584Z,100.00
2023-04-09T16:56:32.005Z,100.00
2023-04-09T16:59:01.391Z,100.00
2023-04-09T17:01:29.422Z,100.00
2023-04-09T17:04:00.837Z,100.00
2023-04-09T17:06:29.014Z,100.00
2023-04-09T17:08:57.449Z,100.00
2023-04-09T17:11:25.452Z,100.00
2023-04-09T17:13:53.462Z,100.00
2023-04-09T17:16:22.988Z,100.00
2023-04-09T17:18:51.506Z,100.00
2023-04-09T17:21:19.955Z,100.00
2023-04-09T17:23:48.014Z,100.00
2023-04-09T17:26:17.584Z,100.00
2023-04-09T17:28:49.242Z,100.00
2023-04-09T17:31:29.699Z,100.00
2023-04-09T17:34:05.068Z,100.00
2023-04-09T17:36:36.942Z,100.00
2023-04-09T17:39:15.123Z,100.00
2023-04-09T17:41:48.851Z,100.00
2023-04-09T17:44:20.289Z,100.00
2023-04-09T17:46:53.298Z,100.00
2023-04-09T17:49:26.466Z,100.00
2023-04-09T17:51:57.541Z,100.00
2023-04-09T17:54:35.968Z,100.00
2023-04-09T17:57:08.095Z,100.00
2023-04-09T17:59:38.267Z,100.00
2023-04-09T18:02:13.854Z,100.00
2023-04-09T18:04:47.853Z,100.00
2023-04-09T18:07:20.696Z,100.00
2023-04-09T18:09:51.858Z,100.00
2023-04-09T18:12:25.905Z,100.00
2023-04-09T18:14:59.889Z,100.00
2023-04-09T18:17:35.930Z,100.00
2023-04-09T18:20:07.220Z,100.00
2023-04-09T18:22:40.616Z,100.00
2023-04-09T18:25:13.931Z,100.00
2023-04-09T18:27:47.998Z,100.00
2023-04-09T18:30:30.699Z,100.00
2023-04-09T18:33:03.239Z,100.00
2023-04-09T18:35:38.082Z,100.00
2023-04-09T18:38:11.970Z,100.00
2023-04-09T18:40:44.665Z,100.00
2023-04-09T18:43:18.553Z,100.00
2023-04-09T18:45:49.542Z,100.00
2023-04-09T18:48:23.654Z,100.00
2023-04-09T18:50:54.860Z,100.00
2023-04-09T18:53:30.510Z,100.00
2023-04-09T18:56:18.234Z,100.00
2023-04-09T18:58:51.077Z,100.00
2023-04-09T19:01:24.471Z,100.00
2023-04-09T19:03:56.669Z,100.00
2023-04-09T19:06:32.380Z,100.00
2023-04-09T19:09:03.597Z,100.00
2023-04-09T19:11:36.267Z,100.00
2023-04-09T19:14:06.871Z,100.00
2023-04-09T19:16:38.776Z,100.00
2023-04-09T19:19:13.215Z,100.00
2023-04-09T19:21:47.055Z,100.00
2023-04-09T19:24:19.122Z,100.00
2023-04-09T19:26:52.776Z,100.00
2023-04-09T19:29:28.341Z,100.00
2023-04-09T19:32:01.953Z,100.00
2023-04-09T19:34:33.583Z,100.00
2023-04-09T19:37:07.148Z,100.00
2023-04-09T19:39:40.442Z,100.00
2023-04-09T19:42:18.773Z,100.00
2023-04-09T19:44:52.369Z,100.00
2023-04-09T19:47:23.862Z,100.00
2023-04-09T19:49:59.743Z,100.00
2023-04-09T19:52:30.980Z,100.00
2023-04-09T19:55:03.822Z,100.00
2023-04-09T19:57:35.827Z,100.00
2023-04-09T20:00:12.572Z,100.00
2023-04-09T20:02:43.884Z,100.00
2023-04-09T20:05:24.768Z,100.00
2023-04-09T20:08:01.292Z,100.00
2023-04-09T20:10:30.181Z,100.00
2023-04-09T20:12:59.944Z,100.00
2023-04-09T20:15:28.934Z,100.00
2023-04-09T20:17:57.447Z,100.00
2023-04-09T20:20:27.323Z,100.00
2023-04-09T20:22:56.584Z,100.00
2023-04-09T20:25:25.840Z,100.00
2023-04-09T20:27:56.720Z,100.00
2023-04-09T20:30:24.979Z,100.00
2023-04-09T20:32:53.173Z,100.00
2023-04-09T20:35:21.213Z,100.00
2023-04-09T20:37:51.366Z,100.00
2023-04-09T20:40:19.300Z,100.00
2023-04-09T20:42:47.273Z,100.00
2023-04-09T20:45:15.833Z,100.00
2023-04-09T20:47:43.805Z,100.00
2023-04-09T20:50:12.545Z,100.00
2023-04-09T20:52:40.480Z,100.00
2023-04-09T20:55:10.319Z,100.00
2023-04-09T20:57:38.311Z,100.00
2023-04-09T21:00:07.429Z,100.00
2023-04-09T21:02:35.514Z,100.00
2023-04-09T21:05:15.405Z,100.00
2023-04-09T21:07:50.813Z,100.00
2023-04-09T21:10:20.377Z,100.00
2023-04-09T21:12:48.394Z,100.00
2023-04-09T21:15:16.700Z,100.00
2023-04-09T21:17:44.791Z,100.00
2023-04-09T21:20:14.674Z,100.00
2023-04-09T21:22:42.620Z,100.00
2023-04-09T21:25:11.678Z,100.00
2023-04-09T21:27:42.178Z,100.00
2023-04-09T21:30:11.160Z,100.00
2023-04-09T21:32:39.294Z,100.00
2023-04-09T21:35:07.719Z,100.00
2023-04-09T21:37:37.547Z,100.00
2023-04-09T21:40:06.327Z,100.00
2023-04-09T21:42:34.280Z,100.00
2023-04-09T21:45:03.817Z,100.00
2023-04-09T21:47:32.058Z,100.00
2023-04-09T21:50:00.088Z,100.00
2023-04-09T21:52:28.200Z,100.00
2023-04-09T21:54:56.155Z,100.00
2023-04-09T21:57:24.179Z,100.00
2023-04-09T21:59:52.116Z,100.00
2023-04-09T22:02:21.611Z,100.00
2023-04-09T22:04:49.660Z,100.00
2023-04-09T22:07:17.717Z,100.00
2023-04-09T22:09:45.620Z,100.00
2023-04-09T22:12:13.534Z,100.00
2023-04-09T22:14:41.970Z,100.00
2023-04-09T22:17:10.060Z,100.00
2023-04-09T22:19:39.375Z,100.00
2023-04-09T22:22:09.140Z,100.00
2023-04-09T22:24:37.090Z,100.00
2023-04-09T22:27:05.191Z,100.00
2023-04-09T22:29:33.901Z,100.00
2023-04-09T22:32:02.690Z,100.00
2023-04-09T22:34:33.120Z,100.00
2023-04-09T22:37:02.748Z,100.00
2023-04-09T22:39:31.368Z,100.00
2023-04-09T22:41:59.513Z,100.00
2023-04-09T22:44:27.559Z,100.00
2023-04-09T22:46:55.555Z,100.00
2023-04-09T22:49:24.137Z,100.00
2023-04-09T22:51:52.148Z,100.00
2023-04-09T22:54:21.576Z,100.00
2023-04-09T22:56:49.753Z,100.00
2023-04-09T22:59:17.815Z,100.00
2023-04-09T23:01:47.941Z,100.00
2023-04-09T23:04:17.908Z,100.00
2023-04-09T23:06:48.641Z,100.00
2023-04-09T23:09:18.519Z,100.00
2023-04-09T23:11:47.950Z,100.00
2023-04-09T23:14:16.094Z,100.00
2023-04-09T23:16:44.098Z,100.00
2023-04-09T23:19:12.475Z,100.00
2023-04-09T23:21:40.470Z,100.00
2023-04-09T23:24:08.475Z,100.00
2023-04-09T23:26:36.425Z,100.00
2023-04-09T23:29:05.831Z,100.00
2023-04-09T23:31:33.810Z,100.00
2023-04-09T23:34:01.737Z,100.00
2023-04-09T23:36:30.013Z,100.00
2023-04-09T23:38:57.918Z,100.00
2023-04-09T23:41:26.117Z,100.00
2023-04-09T23:43:54.193Z,100.00
2023-04-09T23:46:23.850Z,100.00
2023-04-09T23:48:51.789Z,100.00
2023-04-09T23:51:20.319Z,100.00
2023-04-09T23:53:48.249Z,100.00
2023-04-09T23:56:16.231Z,100.00
2023-04-09T23:58:44.224Z,100.00
